sensor_id;sensor_type;location;lat;lon;timestamp;pressure;altitude;pressure_sealevel;temperature;humidity
62655;BME280;48717;55.556;37.816;2024-02-14T00:00:20;100356.88;;;-12.62;90.32
62655;BME280;48717;55.556;37.816;2024-02-14T00:02:49;100356.13;;;-12.61;90.85
62655;BME280;48717;55.556;37.816;2024-02-14T00:05:17;100354.19;;;-12.63;90.54
62655;BME280;48717;55.556;37.816;2024-02-14T00:07:45;100369.13;;;-12.57;91.03
62655;BME280;48717;55.556;37.816;2024-02-14T00:10:12;100326.63;;;-12.76;90.57
62655;BME280;48717;55.556;37.816;2024-02-14T00:12:41;100368.97;;;-12.59;90.90
62655;BME280;48717;55.556;37.816;2024-02-14T00:15:11;100353.69;;;-12.68;90.55
62655;BME280;48717;55.556;37.816;2024-02-14T00:17:38;100355.22;;;-12.70;90.82
62655;BME280;48717;55.556;37.816;2024-02-14T00:20:06;100366.72;;;-12.65;90.75
62655;BME280;48717;55.556;37.816;2024-02-14T00:22:52;100365.66;;;-12.67;90.66
62655;BME280;48717;55.556;37.816;2024-02-14T00:25:20;100365.53;;;-12.68;90.21
62655;BME280;48717;55.556;37.816;2024-02-14T00:27:54;100355.63;;;-12.74;90.19
62655;BME280;48717;55.556;37.816;2024-02-14T00:30:22;100367.59;;;-12.73;90.32
62655;BME280;48717;55.556;37.816;2024-02-14T00:33:23;100347.22;;;-12.91;90.53
62655;BME280;48717;55.556;37.816;2024-02-14T00:35:52;100376.56;;;-12.77;90.33
62655;BME280;48717;55.556;37.816;2024-02-14T00:38:20;100353.34;;;-12.89;90.59
62655;BME280;48717;55.556;37.816;2024-02-14T00:40:47;100370.69;;;-12.85;90.79
62655;BME280;48717;55.556;37.816;2024-02-14T00:43:14;100361.41;;;-12.93;90.29
62655;BME280;48717;55.556;37.816;2024-02-14T00:45:42;100366.03;;;-12.89;90.51
62655;BME280;48717;55.556;37.816;2024-02-14T00:48:09;100381.59;;;-12.86;90.91
62655;BME280;48717;55.556;37.816;2024-02-14T00:50:37;100363.31;;;-12.99;90.50
62655;BME280;48717;55.556;37.816;2024-02-14T00:53:05;100368.41;;;-12.99;90.31
62655;BME280;48717;55.556;37.816;2024-02-14T00:55:33;100381.72;;;-12.93;90.29
62655;BME280;48717;55.556;37.816;2024-02-14T00:58:00;100363.31;;;-12.99;90.83
62655;BME280;48717;55.556;37.816;2024-02-14T01:00:28;100373.78;;;-12.96;91.03
62655;BME280;48717;55.556;37.816;2024-02-14T01:02:56;100366.59;;;-13.00;90.63
62655;BME280;48717;55.556;37.816;2024-02-14T01:05:25;100385.75;;;-12.95;90.43
62655;BME280;48717;55.556;37.816;2024-02-14T01:07:52;100382.16;;;-12.97;90.41
62655;BME280;48717;55.556;37.816;2024-02-14T01:10:21;100389.28;;;-13.02;90.46
62655;BME280;48717;55.556;37.816;2024-02-14T01:12:49;100382.75;;;-13.00;90.50
62655;BME280;48717;55.556;37.816;2024-02-14T01:15:16;100377.94;;;-13.05;90.13
62655;BME280;48717;55.556;37.816;2024-02-14T01:17:43;100380.91;;;-13.09;90.00
62655;BME280;48717;55.556;37.816;2024-02-14T01:20:15;100388.19;;;-13.13;90.21
62655;BME280;48717;55.556;37.816;2024-02-14T01:22:42;100377.31;;;-13.12;90.40
62655;BME280;48717;55.556;37.816;2024-02-14T01:25:21;100385.06;;;-13.10;90.10
62655;BME280;48717;55.556;37.816;2024-02-14T01:27:49;100389.88;;;-13.04;90.19
62655;BME280;48717;55.556;37.816;2024-02-14T01:30:16;100390.00;;;-13.12;89.69
62655;BME280;48717;55.556;37.816;2024-02-14T01:32:43;100402.09;;;-13.09;89.89
62655;BME280;48717;55.556;37.816;2024-02-14T01:35:11;100379.97;;;-13.19;89.56
62655;BME280;48717;55.556;37.816;2024-02-14T01:37:39;100385.75;;;-13.20;89.49
62655;BME280;48717;55.556;37.816;2024-02-14T01:40:07;100395.91;;;-13.20;89.64
62655;BME280;48717;55.556;37.816;2024-02-14T01:42:52;100367.91;;;-13.38;89.66
62655;BME280;48717;55.556;37.816;2024-02-14T01:45:19;100400.38;;;-13.26;89.67
62655;BME280;48717;55.556;37.816;2024-02-14T01:47:58;100391.81;;;-13.35;89.90
62655;BME280;48717;55.556;37.816;2024-02-14T01:50:25;100411.28;;;-13.27;90.25
62655;BME280;48717;55.556;37.816;2024-02-14T01:52:58;100405.25;;;-13.37;89.76
62655;BME280;48717;55.556;37.816;2024-02-14T01:55:27;100421.94;;;-13.39;89.75
62655;BME280;48717;55.556;37.816;2024-02-14T01:57:55;100419.00;;;-13.34;90.23
62655;BME280;48717;55.556;37.816;2024-02-14T02:00:25;100432.75;;;-13.32;89.73
62655;BME280;48717;55.556;37.816;2024-02-14T02:02:55;100397.16;;;-13.50;90.16
62655;BME280;48717;55.556;37.816;2024-02-14T02:05:24;100430.31;;;-13.40;89.92
62655;BME280;48717;55.556;37.816;2024-02-14T02:07:52;100409.84;;;-13.50;89.91
62655;BME280;48717;55.556;37.816;2024-02-14T02:10:21;100430.63;;;-13.37;90.07
62655;BME280;48717;55.556;37.816;2024-02-14T02:13:09;100430.31;;;-13.40;89.92
62655;BME280;48717;55.556;37.816;2024-02-14T02:15:56;100429.69;;;-13.46;89.73
62655;BME280;48717;55.556;37.816;2024-02-14T02:18:45;100423.41;;;-13.49;89.95
62655;BME280;48717;55.556;37.816;2024-02-14T02:21:34;100422.34;;;-13.52;89.77
62655;BME280;48717;55.556;37.816;2024-02-14T02:24:02;100418.69;;;-13.62;89.55
62655;BME280;48717;55.556;37.816;2024-02-14T02:26:31;100438.41;;;-13.60;89.71
62655;BME280;48717;55.556;37.816;2024-02-14T02:29:19;100440.38;;;-13.57;89.83
62655;BME280;48717;55.556;37.816;2024-02-14T02:31:48;100435.63;;;-13.54;90.03
62655;BME280;48717;55.556;37.816;2024-02-14T02:34:16;100438.81;;;-13.64;89.70
62655;BME280;48717;55.556;37.816;2024-02-14T02:36:44;100434.34;;;-13.67;89.88
62655;BME280;48717;55.556;37.816;2024-02-14T02:39:31;100444.91;;;-13.71;90.12
62655;BME280;48717;55.556;37.816;2024-02-14T02:42:18;100447.25;;;-13.72;90.11
62655;BME280;48717;55.556;37.816;2024-02-14T02:45:06;100438.09;;;-13.79;89.96
62655;BME280;48717;55.556;37.816;2024-02-14T02:47:53;100450.03;;;-13.78;90.06
62655;BME280;48717;55.556;37.816;2024-02-14T02:50:41;100443.13;;;-13.88;90.49
62655;BME280;48717;55.556;37.816;2024-02-14T02:53:30;100456.59;;;-13.80;90.30
62655;BME280;48717;55.556;37.816;2024-02-14T02:56:18;100451.53;;;-13.80;90.31
62655;BME280;48717;55.556;37.816;2024-02-14T02:58:45;100459.88;;;-13.81;90.38
62655;BME280;48717;55.556;37.816;2024-02-14T03:01:13;100452.69;;;-13.85;90.32
62655;BME280;48717;55.556;37.816;2024-02-14T03:04:00;100464.97;;;-13.81;90.53
62655;BME280;48717;55.556;37.816;2024-02-14T03:06:48;100439.28;;;-14.00;90.14
62655;BME280;48717;55.556;37.816;2024-02-14T03:09:35;100467.22;;;-13.92;90.14
62655;BME280;48717;55.556;37.816;2024-02-14T03:12:23;100489.63;;;-13.87;90.24
62655;BME280;48717;55.556;37.816;2024-02-14T03:15:11;100474.13;;;-13.91;90.49
62655;BME280;48717;55.556;37.816;2024-02-14T03:17:38;100483.59;;;-13.97;90.03
62655;BME280;48717;55.556;37.816;2024-02-14T03:20:06;100455.13;;;-14.10;90.29
62655;BME280;48717;55.556;37.816;2024-02-14T03:22:44;100480.47;;;-13.94;90.28
62655;BME280;48717;55.556;37.816;2024-02-14T03:25:19;100482.13;;;-13.95;90.12
62655;BME280;48717;55.556;37.816;2024-02-14T03:27:58;100468.97;;;-13.99;90.22
62655;BME280;48717;55.556;37.816;2024-02-14T03:30:26;100475.25;;;-13.96;90.14
62655;BME280;48717;55.556;37.816;2024-02-14T03:32:54;100463.25;;;-14.06;90.39
62655;BME280;48717;55.556;37.816;2024-02-14T03:35:23;100486.53;;;-14.01;90.28
62655;BME280;48717;55.556;37.816;2024-02-14T03:37:50;100486.19;;;-14.04;90.43
62655;BME280;48717;55.556;37.816;2024-02-14T03:40:20;100475.75;;;-14.07;90.31
62655;BME280;48717;55.556;37.816;2024-02-14T03:42:48;100484.63;;;-14.11;90.31
62655;BME280;48717;55.556;37.816;2024-02-14T03:45:16;100502.53;;;-14.09;90.44
62655;BME280;48717;55.556;37.816;2024-02-14T03:47:43;100492.91;;;-14.21;90.46
62655;BME280;48717;55.556;37.816;2024-02-14T03:50:11;100490.19;;;-14.22;90.57
62655;BME280;48717;55.556;37.816;2024-02-14T03:52:38;100484.78;;;-14.25;90.59
62655;BME280;48717;55.556;37.816;2024-02-14T03:55:06;100494.47;;;-14.14;90.69
62655;BME280;48717;55.556;37.816;2024-02-14T03:57:36;100497.63;;;-14.24;90.49
62655;BME280;48717;55.556;37.816;2024-02-14T04:00:06;100494.75;;;-14.27;90.64
62655;BME280;48717;55.556;37.816;2024-02-14T04:02:42;100497.22;;;-14.20;90.31
62655;BME280;48717;55.556;37.816;2024-02-14T04:05:09;100495.84;;;-14.25;90.83
62655;BME280;48717;55.556;37.816;2024-02-14T04:07:37;100504.50;;;-14.23;90.49
62655;BME280;48717;55.556;37.816;2024-02-14T04:10:05;100511.53;;;-14.20;90.73
62655;BME280;48717;55.556;37.816;2024-02-14T04:12:35;100504.59;;;-14.30;90.62
62655;BME280;48717;55.556;37.816;2024-02-14T04:15:03;100477.91;;;-14.43;90.29
62655;BME280;48717;55.556;37.816;2024-02-14T04:17:47;100512.50;;;-14.27;89.96
62655;BME280;48717;55.556;37.816;2024-02-14T04:20:15;100495.06;;;-14.40;90.45
62655;BME280;48717;55.556;37.816;2024-02-14T04:22:42;100485.16;;;-14.46;90.31
62655;BME280;48717;55.556;37.816;2024-02-14T04:25:11;100515.28;;;-14.33;90.27
62655;BME280;48717;55.556;37.816;2024-02-14T04:27:39;100515.13;;;-14.34;90.28
62655;BME280;48717;55.556;37.816;2024-02-14T04:30:09;100506.50;;;-14.44;90.13
62655;BME280;48717;55.556;37.816;2024-02-14T04:32:57;100523.59;;;-14.34;90.57
62655;BME280;48717;55.556;37.816;2024-02-14T04:35:25;100525.56;;;-14.31;90.27
62655;BME280;48717;55.556;37.816;2024-02-14T04:37:52;100532.34;;;-14.39;90.26
62655;BME280;48717;55.556;37.816;2024-02-14T04:40:20;100534.69;;;-14.40;89.91
62655;BME280;48717;55.556;37.816;2024-02-14T04:42:47;100517.34;;;-14.45;90.25
62655;BME280;48717;55.556;37.816;2024-02-14T04:45:15;100517.09;;;-14.55;89.60
62655;BME280;48717;55.556;37.816;2024-02-14T04:48:02;100535.81;;;-14.46;90.15
62655;BME280;48717;55.556;37.816;2024-02-14T04:50:31;100535.47;;;-14.49;89.98
62655;BME280;48717;55.556;37.816;2024-02-14T04:52:59;100526.09;;;-14.50;89.68
62655;BME280;48717;55.556;37.816;2024-02-14T04:55:26;100543.44;;;-14.46;89.82
62655;BME280;48717;55.556;37.816;2024-02-14T04:57:56;100547.75;;;-14.45;89.39
62655;BME280;48717;55.556;37.816;2024-02-14T05:00:24;100543.44;;;-14.46;89.56
62655;BME280;48717;55.556;37.816;2024-02-14T05:02:51;100547.75;;;-14.45;89.26
62655;BME280;48717;55.556;37.816;2024-02-14T05:05:19;100558.44;;;-14.47;89.40
62655;BME280;48717;55.556;37.816;2024-02-14T05:07:57;100558.81;;;-14.44;89.29
62655;BME280;48717;55.556;37.816;2024-02-14T05:10:26;100553.28;;;-14.56;89.27
62655;BME280;48717;55.556;37.816;2024-02-14T05:12:53;100562.63;;;-14.48;88.95
62655;BME280;48717;55.556;37.816;2024-02-14T05:15:20;100540.66;;;-14.63;88.60
62655;BME280;48717;55.556;37.816;2024-02-14T05:17:48;100548.78;;;-14.59;88.57
62655;BME280;48717;55.556;37.816;2024-02-14T05:20:17;100555.75;;;-14.49;88.73
62655;BME280;48717;55.556;37.816;2024-02-14T05:22:46;100553.72;;;-14.44;88.25
62655;BME280;48717;55.556;37.816;2024-02-14T05:25:13;100570.16;;;-14.40;88.02
62655;BME280;48717;55.556;37.816;2024-02-14T05:27:58;100545.03;;;-14.46;87.87
62655;BME280;48717;55.556;37.816;2024-02-14T05:30:27;100573.00;;;-14.30;87.96
62655;BME280;48717;55.556;37.816;2024-02-14T05:33:14;100559.25;;;-14.32;87.75
62655;BME280;48717;55.556;37.816;2024-02-14T05:35:42;100563.75;;;-14.30;87.24
62655;BME280;48717;55.556;37.816;2024-02-14T05:38:10;100563.97;;;-14.35;86.93
62655;BME280;48717;55.556;37.816;2024-02-14T05:40:37;100570.06;;;-14.26;86.50
62655;BME280;48717;55.556;37.816;2024-02-14T05:43:06;100569.38;;;-14.32;86.41
62655;BME280;48717;55.556;37.816;2024-02-14T05:45:34;100582.66;;;-14.19;86.41
62655;BME280;48717;55.556;37.816;2024-02-14T05:48:01;100580.13;;;-14.19;86.01
62655;BME280;48717;55.556;37.816;2024-02-14T05:50:29;100584.22;;;-14.12;85.79
62655;BME280;48717;55.556;37.816;2024-02-14T05:52:57;100597.72;;;-14.04;85.80
62655;BME280;48717;55.556;37.816;2024-02-14T05:55:25;100595.06;;;-14.06;85.22
62655;BME280;48717;55.556;37.816;2024-02-14T05:58:01;100598.06;;;-14.01;85.13
62655;BME280;48717;55.556;37.816;2024-02-14T06:00:30;100601.91;;;-14.05;84.36
62655;BME280;48717;55.556;37.816;2024-02-14T06:02:58;100579.91;;;-14.13;84.46
62655;BME280;48717;55.556;37.816;2024-02-14T06:05:26;100600.78;;;-13.99;84.44
62655;BME280;48717;55.556;37.816;2024-02-14T06:07:53;100573.22;;;-14.12;84.28
62655;BME280;48717;55.556;37.816;2024-02-14T06:10:20;100598.91;;;-13.93;84.11
62655;BME280;48717;55.556;37.816;2024-02-14T06:12:48;100603.09;;;-13.94;83.48
62655;BME280;48717;55.556;37.816;2024-02-14T06:15:17;100614.28;;;-13.92;83.34
62655;BME280;48717;55.556;37.816;2024-02-14T06:17:45;100602.00;;;-13.96;83.44
62655;BME280;48717;55.556;37.816;2024-02-14T06:20:12;100606.19;;;-13.96;82.77
62655;BME280;48717;55.556;37.816;2024-02-14T06:22:40;100616.91;;;-13.99;82.57
62655;BME280;48717;55.556;37.816;2024-02-14T06:25:20;100613.47;;;-13.99;82.60
62655;BME280;48717;55.556;37.816;2024-02-14T06:28:05;100612.41;;;-14.01;82.81
62655;BME280;48717;55.556;37.816;2024-02-14T06:30:32;100607.34;;;-14.01;82.24
62655;BME280;48717;55.556;37.816;2024-02-14T06:33:00;100614.88;;;-14.18;81.82
62655;BME280;48717;55.556;37.816;2024-02-14T06:35:31;100623.34;;;-14.10;82.14
62655;BME280;48717;55.556;37.816;2024-02-14T06:37:59;100623.66;;;-14.07;82.20
62655;BME280;48717;55.556;37.816;2024-02-14T06:40:32;100616.56;;;-14.02;82.02
62655;BME280;48717;55.556;37.816;2024-02-14T06:43:00;100617.56;;;-13.93;81.89
62655;BME280;48717;55.556;37.816;2024-02-14T06:45:31;100605.13;;;-13.82;81.86
62655;BME280;48717;55.556;37.816;2024-02-14T06:48:18;100623.03;;;-13.57;80.74
62655;BME280;48717;55.556;37.816;2024-02-14T06:50:53;100601.06;;;-13.41;80.19
62655;BME280;48717;55.556;37.816;2024-02-14T06:53:20;100614.97;;;-13.21;79.14
62655;BME280;48717;55.556;37.816;2024-02-14T06:55:48;100600.53;;;-13.13;78.17
62655;BME280;48717;55.556;37.816;2024-02-14T06:58:16;100628.09;;;-12.84;77.65
62655;BME280;48717;55.556;37.816;2024-02-14T07:00:43;100611.03;;;-12.69;77.31
62655;BME280;48717;55.556;37.816;2024-02-14T07:03:11;100622.22;;;-12.51;76.00
62655;BME280;48717;55.556;37.816;2024-02-14T07:05:39;100612.41;;;-12.39;75.93
62655;BME280;48717;55.556;37.816;2024-02-14T07:08:07;100624.91;;;-12.24;74.76
62655;BME280;48717;55.556;37.816;2024-02-14T07:10:34;100597.84;;;-12.24;74.19
62655;BME280;48717;55.556;37.816;2024-02-14T07:13:02;100604.06;;;-11.86;73.13
62655;BME280;48717;55.556;37.816;2024-02-14T07:15:30;100619.72;;;-11.57;71.54
62655;BME280;48717;55.556;37.816;2024-02-14T07:17:57;100629.06;;;-11.31;71.78
62655;BME280;48717;55.556;37.816;2024-02-14T07:20:27;100615.31;;;-11.15;69.67
62655;BME280;48717;55.556;37.816;2024-02-14T07:22:55;100612.91;;;-11.05;70.00
62655;BME280;48717;55.556;37.816;2024-02-14T07:25:24;100624.31;;;-10.92;69.34
62655;BME280;48717;55.556;37.816;2024-02-14T07:27:52;100614.69;;;-10.68;68.21
62655;BME280;48717;55.556;37.816;2024-02-14T07:30:20;100615.78;;;-10.38;67.57
62655;BME280;48717;55.556;37.816;2024-02-14T07:32:48;100600.94;;;-10.33;66.90
62655;BME280;48717;55.556;37.816;2024-02-14T07:35:16;100610.03;;;-10.09;65.87
62655;BME280;48717;55.556;37.816;2024-02-14T07:37:43;100621.94;;;-9.90;65.31
62655;BME280;48717;55.556;37.816;2024-02-14T07:40:11;100597.31;;;-9.90;64.74
62655;BME280;48717;55.556;37.816;2024-02-14T07:43:02;100638.59;;;-9.94;63.83
62655;BME280;48717;55.556;37.816;2024-02-14T07:45:30;100629.53;;;-10.18;64.88
62655;BME280;48717;55.556;37.816;2024-02-14T07:47:57;100623.56;;;-10.28;65.24
62655;BME280;48717;55.556;37.816;2024-02-14T07:50:25;100623.09;;;-10.24;65.61
62655;BME280;48717;55.556;37.816;2024-02-14T07:52:55;100616.06;;;-10.17;64.88
62655;BME280;48717;55.556;37.816;2024-02-14T07:55:23;100607.69;;;-10.34;65.20
62655;BME280;48717;55.556;37.816;2024-02-14T07:57:51;100628.34;;;-10.13;65.53
62655;BME280;48717;55.556;37.816;2024-02-14T08:00:20;100622.34;;;-10.23;65.43
62655;BME280;48717;55.556;37.816;2024-02-14T08:02:51;100627.28;;;-10.15;65.07
62655;BME280;48717;55.556;37.816;2024-02-14T08:05:18;100624.41;;;-10.10;65.14
62655;BME280;48717;55.556;37.816;2024-02-14T08:07:47;100625.91;;;-10.03;65.10
62655;BME280;48717;55.556;37.816;2024-02-14T08:10:15;100638.19;;;-9.99;64.91
62655;BME280;48717;55.556;37.816;2024-02-14T08:12:44;100630.06;;;-9.94;64.77
62655;BME280;48717;55.556;37.816;2024-02-14T08:15:12;100617.78;;;-10.07;65.38
62655;BME280;48717;55.556;37.816;2024-02-14T08:17:39;100623.19;;;-9.96;65.59
62655;BME280;48717;55.556;37.816;2024-02-14T08:20:13;100642.63;;;-9.87;64.89
62655;BME280;48717;55.556;37.816;2024-02-14T08:23:00;100625.25;;;-9.91;64.72
62655;BME280;48717;55.556;37.816;2024-02-14T08:25:27;100646.41;;;-9.92;64.45
62655;BME280;48717;55.556;37.816;2024-02-14T08:27:55;100640.91;;;-10.06;64.31
62655;BME280;48717;55.556;37.816;2024-02-14T08:30:23;100653.84;;;-10.13;65.85
62655;BME280;48717;55.556;37.816;2024-02-14T08:32:51;100651.19;;;-10.41;65.91
62655;BME280;48717;55.556;37.816;2024-02-14T08:35:18;100659.34;;;-10.45;66.71
62655;BME280;48717;55.556;37.816;2024-02-14T08:37:46;100636.09;;;-10.57;67.17
62655;BME280;48717;55.556;37.816;2024-02-14T08:40:14;100648.50;;;-10.43;67.53
62655;BME280;48717;55.556;37.816;2024-02-14T08:42:41;100645.78;;;-10.36;66.99
62655;BME280;48717;55.556;37.816;2024-02-14T08:45:09;100634.91;;;-10.52;67.74
62655;BME280;48717;55.556;37.816;2024-02-14T08:47:37;100657.16;;;-10.32;68.51
62655;BME280;48717;55.556;37.816;2024-02-14T08:50:05;100660.59;;;-10.14;68.21
62655;BME280;48717;55.556;37.816;2024-02-14T08:52:33;100652.44;;;-10.01;68.28
62655;BME280;48717;55.556;37.816;2024-02-14T08:55:01;100653.34;;;-9.91;67.52
62655;BME280;48717;55.556;37.816;2024-02-14T08:57:29;100659.00;;;-9.85;67.88
62655;BME280;48717;55.556;37.816;2024-02-14T08:59:58;100645.78;;;-9.81;67.72
62655;BME280;48717;55.556;37.816;2024-02-14T09:02:30;100665.81;;;-9.66;67.69
62655;BME280;48717;55.556;37.816;2024-02-14T09:04:57;100675.56;;;-9.62;66.64
62655;BME280;48717;55.556;37.816;2024-02-14T09:07:25;100660.00;;;-9.74;66.61
62655;BME280;48717;55.556;37.816;2024-02-14T09:09:53;100655.06;;;-9.73;66.97
62655;BME280;48717;55.556;37.816;2024-02-14T09:12:20;100665.66;;;-9.59;67.04
62655;BME280;48717;55.556;37.816;2024-02-14T09:14:48;100668.28;;;-9.49;67.29
62655;BME280;48717;55.556;37.816;2024-02-14T09:17:16;100663.97;;;-9.59;66.71
62655;BME280;48717;55.556;37.816;2024-02-14T09:19:43;100671.63;;;-9.59;66.59
62655;BME280;48717;55.556;37.816;2024-02-14T09:22:11;100657.78;;;-9.52;67.26
62655;BME280;48717;55.556;37.816;2024-02-14T09:24:38;100656.00;;;-9.53;66.49
62655;BME280;48717;55.556;37.816;2024-02-14T09:27:06;100657.94;;;-9.50;66.30
62655;BME280;48717;55.556;37.816;2024-02-14T09:29:33;100666.41;;;-9.32;66.98
62655;BME280;48717;55.556;37.816;2024-02-14T09:32:05;100672.84;;;-9.27;66.69
62655;BME280;48717;55.556;37.816;2024-02-14T09:34:32;100663.16;;;-9.40;66.87
62655;BME280;48717;55.556;37.816;2024-02-14T09:37:00;100665.50;;;-9.33;66.75
62655;BME280;48717;55.556;37.816;2024-02-14T09:39:27;100656.00;;;-9.25;66.38
62655;BME280;48717;55.556;37.816;2024-02-14T09:41:58;100670.47;;;-9.06;66.09
62655;BME280;48717;55.556;37.816;2024-02-14T09:44:31;100654.66;;;-9.02;66.57
62655;BME280;48717;55.556;37.816;2024-02-14T09:47:00;100663.53;;;-8.88;65.87
62655;BME280;48717;55.556;37.816;2024-02-14T09:49:29;100654.84;;;-8.71;66.76
62655;BME280;48717;55.556;37.816;2024-02-14T09:51:58;100669.44;;;-8.70;66.05
62655;BME280;48717;55.556;37.816;2024-02-14T09:54:31;100671.72;;;-8.73;65.74
62655;BME280;48717;55.556;37.816;2024-02-14T09:56:59;100652.16;;;-8.72;66.08
62655;BME280;48717;55.556;37.816;2024-02-14T09:59:27;100646.09;;;-8.83;66.14
62655;BME280;48717;55.556;37.816;2024-02-14T10:01:55;100670.41;;;-8.78;65.62
62655;BME280;48717;55.556;37.816;2024-02-14T10:04:22;100657.28;;;-8.72;65.73
62655;BME280;48717;55.556;37.816;2024-02-14T10:06:52;100668.47;;;-8.51;66.99
62655;BME280;48717;55.556;37.816;2024-02-14T10:09:21;100664.41;;;-8.49;65.54
62655;BME280;48717;55.556;37.816;2024-02-14T10:11:49;100655.25;;;-8.66;65.74
62655;BME280;48717;55.556;37.816;2024-02-14T10:14:17;100643.25;;;-8.86;66.19
62655;BME280;48717;55.556;37.816;2024-02-14T10:16:44;100647.25;;;-8.99;66.60
62655;BME280;48717;55.556;37.816;2024-02-14T10:19:17;100651.38;;;-8.91;67.52
62655;BME280;48717;55.556;37.816;2024-02-14T10:22:03;100660.84;;;-8.89;67.65
62655;BME280;48717;55.556;37.816;2024-02-14T10:24:33;100669.00;;;-8.74;67.38
62655;BME280;48717;55.556;37.816;2024-02-14T10:27:00;100644.63;;;-8.71;66.62
62655;BME280;48717;55.556;37.816;2024-02-14T10:29:30;100655.41;;;-8.65;67.55
62655;BME280;48717;55.556;37.816;2024-02-14T10:31:58;100647.38;;;-8.78;66.68
62655;BME280;48717;55.556;37.816;2024-02-14T10:34:25;100651.00;;;-8.76;67.10
62655;BME280;48717;55.556;37.816;2024-02-14T10:36:56;100635.28;;;-8.70;66.94
62655;BME280;48717;55.556;37.816;2024-02-14T10:39:25;100661.22;;;-8.46;67.39
62655;BME280;48717;55.556;37.816;2024-02-14T10:41:54;100626.44;;;-8.55;66.59
62655;BME280;48717;55.556;37.816;2024-02-14T10:44:22;100645.25;;;-8.44;66.62
62655;BME280;48717;55.556;37.816;2024-02-14T10:46:52;100647.66;;;-8.56;66.75
62655;BME280;48717;55.556;37.816;2024-02-14T10:49:20;100635.50;;;-8.58;67.63
62655;BME280;48717;55.556;37.816;2024-02-14T10:51:49;100638.06;;;-8.48;67.80
62655;BME280;48717;55.556;37.816;2024-02-14T10:54:21;100652.97;;;-8.33;66.67
62655;BME280;48717;55.556;37.816;2024-02-14T10:56:49;100658.63;;;-8.27;66.62
62655;BME280;48717;55.556;37.816;2024-02-14T10:59:20;100659.13;;;-8.31;66.10
62655;BME280;48717;55.556;37.816;2024-02-14T11:01:51;100655.03;;;-8.29;67.52
62655;BME280;48717;55.556;37.816;2024-02-14T11:04:19;100657.81;;;-8.36;67.61
62655;BME280;48717;55.556;37.816;2024-02-14T11:06:53;100662.03;;;-8.37;68.21
62655;BME280;48717;55.556;37.816;2024-02-14T11:10:01;100652.16;;;-8.53;67.62
62655;BME280;48717;55.556;37.816;2024-02-14T11:12:33;100662.75;;;-8.48;67.44
62655;BME280;48717;55.556;37.816;2024-02-14T11:15:23;100669.28;;;-8.42;69.04
62655;BME280;48717;55.556;37.816;2024-02-14T11:17:50;100642.56;;;-8.45;68.24
62655;BME280;48717;55.556;37.816;2024-02-14T11:20:30;100632.41;;;-8.54;68.66
62655;BME280;48717;55.556;37.816;2024-02-14T11:23:02;100651.88;;;-8.46;68.19
62655;BME280;48717;55.556;37.816;2024-02-14T11:25:34;100645.53;;;-8.41;69.28
62655;BME280;48717;55.556;37.816;2024-02-14T11:28:16;100646.59;;;-8.28;69.46
62655;BME280;48717;55.556;37.816;2024-02-14T11:30:44;100665.19;;;-8.20;68.27
62655;BME280;48717;55.556;37.816;2024-02-14T11:33:20;100648.72;;;-8.14;68.66
62655;BME280;48717;55.556;37.816;2024-02-14T11:35:49;100640.41;;;-8.11;68.35
62655;BME280;48717;55.556;37.816;2024-02-14T11:38:21;100641.56;;;-8.07;67.76
62655;BME280;48717;55.556;37.816;2024-02-14T11:40:49;100641.56;;;-8.07;67.66
62655;BME280;48717;55.556;37.816;2024-02-14T11:43:19;100651.78;;;-8.18;67.91
62655;BME280;48717;55.556;37.816;2024-02-14T11:45:47;100644.00;;;-8.39;68.55
62655;BME280;48717;55.556;37.816;2024-02-14T11:48:20;100664.97;;;-8.32;69.22
62655;BME280;48717;55.556;37.816;2024-02-14T11:50:53;100656.56;;;-8.31;68.78
62655;BME280;48717;55.556;37.816;2024-02-14T11:53:21;100653.72;;;-8.34;69.45
62655;BME280;48717;55.556;37.816;2024-02-14T11:55:48;100652.44;;;-8.40;69.44
62655;BME280;48717;55.556;37.816;2024-02-14T11:58:17;100659.34;;;-8.39;68.84
62655;BME280;48717;55.556;37.816;2024-02-14T12:00:46;100666.53;;;-8.34;69.85
62655;BME280;48717;55.556;37.816;2024-02-14T12:03:20;100655.75;;;-8.41;69.75
62655;BME280;48717;55.556;37.816;2024-02-14T12:05:52;100666.00;;;-8.41;69.67
62655;BME280;48717;55.556;37.816;2024-02-14T12:08:21;100642.41;;;-8.57;69.04
62655;BME280;48717;55.556;37.816;2024-02-14T12:10:49;100653.50;;;-8.57;69.43
62655;BME280;48717;55.556;37.816;2024-02-14T12:13:20;100661.94;;;-8.58;70.80
62655;BME280;48717;55.556;37.816;2024-02-14T12:15:51;100646.47;;;-8.79;70.88
62655;BME280;48717;55.556;37.816;2024-02-14T12:18:20;100656.38;;;-8.73;70.41
62655;BME280;48717;55.556;37.816;2024-02-14T12:20:49;100660.66;;;-8.82;71.04
62655;BME280;48717;55.556;37.816;2024-02-14T12:23:23;100657.47;;;-8.80;71.18
62655;BME280;48717;55.556;37.816;2024-02-14T12:25:54;100664.25;;;-8.80;70.59
62655;BME280;48717;55.556;37.816;2024-02-14T12:28:29;100663.50;;;-8.79;70.83
62655;BME280;48717;55.556;37.816;2024-02-14T12:30:59;100665.22;;;-8.88;71.38
62655;BME280;48717;55.556;37.816;2024-02-14T12:33:27;100673.03;;;-8.87;71.87
62655;BME280;48717;55.556;37.816;2024-02-14T12:35:57;100670.41;;;-8.78;71.11
62655;BME280;48717;55.556;37.816;2024-02-14T12:38:25;100666.34;;;-8.76;71.52
62655;BME280;48717;55.556;37.816;2024-02-14T12:40:53;100657.69;;;-8.87;71.14
62655;BME280;48717;55.556;37.816;2024-02-14T12:43:22;100663.25;;;-8.72;72.25
62655;BME280;48717;55.556;37.816;2024-02-14T12:45:50;100669.38;;;-8.80;71.34
62655;BME280;48717;55.556;37.816;2024-02-14T12:48:23;100658.19;;;-8.91;72.15
62655;BME280;48717;55.556;37.816;2024-02-14T12:50:54;100674.25;;;-8.92;72.16